^^
Station Historical Data
Daily Summary for July 29, 2017 Units:  English    Metric   Both
« Previous Day
Next Day »
Daily Weekly Monthly Yearly Custom
  High: Low: Average:
Temperature: 76.3 °F 61.0 °F 68.6 °F
Dew Point: 62.3 °F 52.9 °F 56.8 °F
Humidity: 88% 54% 66%
Wind Speed: 6.0mph 0.0mph 1.6mph
Wind Gust: 18.0mph - -
Wind- - NW
Pressure: 29.91 in 29.78 in -
Precipitation: 0.05 in    
Historical Graphs
 
 
Tabular Data for July 29, 2017
Time Temperature Dew Point Pressure Wind Wind Speed Wind Gust Humidity Rainfall Rate (Hourly) Conditions
00:00 70.9 °F 62.2 °F 29.81 in Calm   3.0 mph 74% 0.00 in SCT
00:15 71.0 °F 62.3 °F 29.80 in Calm   3.0 mph 74% 0.00 in FEW
00:30 70.9 °F 62.2 °F 29.80 in Calm   5.0 mph 74% 0.00 in FEW
00:45 70.9 °F 62.2 °F 29.80 in Calm   5.0 mph 74% 0.00 in FEW
01:00 70.8 °F 62.1 °F 29.79 in WNW 1.0 mph 4.0 mph 74% 0.00 in FEW
02:15 70.2 °F 60.0 °F 29.78 in South 1.0 mph 9.0 mph 70% 0.00 in FEW
02:30 70.0 °F 59.8 °F 29.78 in NNW 1.0 mph 5.0 mph 70% 0.00 in FEW
02:45 69.8 °F 59.2 °F 29.78 in SW 1.0 mph 7.0 mph 69% 0.00 in FEW
03:00 69.6 °F 57.7 °F 29.78 in WNW 1.0 mph 9.0 mph 66% 0.00 in FEW
03:15 69.4 °F 57.1 °F 29.79 in SSW 1.0 mph 5.0 mph 65% 0.00 in CLR
03:30 69.2 °F 55.2 °F 29.79 in NW 1.0 mph 6.0 mph 61% 0.00 in CLR
03:45 69.0 °F 53.1 °F 29.79 in North 3.0 mph 6.0 mph 57% 0.00 in CLR
04:00 68.8 °F 52.9 °F 29.78 in WNW 1.0 mph 8.0 mph 57% 0.00 in CLR
04:15 68.5 °F 53.1 °F 29.78 in NW 5.0 mph 9.0 mph 58% 0.00 in CLR
04:30 68.3 °F 53.4 °F 29.79 in NNW 2.0 mph 8.0 mph 59% 0.00 in CLR
04:45 68.0 °F 53.1 °F 29.79 in NW 2.0 mph 10.0 mph 59% 0.00 in CLR
05:00 67.6 °F 53.2 °F 29.79 in NW 2.0 mph 10.0 mph 60% 0.00 in CLR
05:15 67.3 °F 53.4 °F 29.79 in North 3.0 mph 8.0 mph 61% 0.00 in FEW
05:30 67.1 °F 53.2 °F 29.78 in NW 1.0 mph 5.0 mph 61% 0.00 in FEW
05:45 67.0 °F 53.1 °F 29.78 in Calm   9.0 mph 61% 0.00 in FEW
06:00 66.9 °F 53.4 °F 29.79 in NW 1.0 mph 6.0 mph 62% 0.00 in FEW
06:15 66.7 °F 53.3 °F 29.78 in Calm   5.0 mph 62% 0.00 in BKN
06:30 66.6 °F 53.6 °F 29.78 in SW 1.0 mph 6.0 mph 63% 0.00 in BKN
06:45 66.6 °F 53.6 °F 29.78 in NNW 2.0 mph 8.0 mph 63% 0.00 in BKN
07:00 66.7 °F 53.7 °F 29.79 in NW 2.0 mph 13.0 mph 63% 0.00 in BKN
07:15 66.6 °F 53.6 °F 29.80 in Calm   10.0 mph 63% 0.00 in BKN
07:30 66.4 °F 53.8 °F 29.81 in NNW 5.0 mph 8.0 mph 64% 0.00 in BKN
07:45 66.0 °F 54.3 °F 29.82 in Calm   7.0 mph 66% 0.00 in BKN
08:00 64.9 °F 55.3 °F 29.82 in WNW 1.0 mph 5.0 mph 71% 0.00 in BKN
08:15 62.8 °F 56.6 °F 29.82 in Calm   5.0 mph 80% 0.03 in -RA
08:30 61.4 °F 57.8 °F 29.82 in Calm   1.0 mph 88% 0.01 in -RA
08:45 61.0 °F 57.5 °F 29.81 in Calm   3.0 mph 88% 0.00 in -RA
09:00 61.3 °F 57.1 °F 29.82 in Calm   3.0 mph 86% 0.00 in -RA
09:15 62.2 °F 56.0 °F 29.81 in NW 1.0 mph 5.0 mph 80% 0.00 in BKN
09:30 63.0 °F 56.4 °F 29.81 in NW 1.0 mph 7.0 mph 79% 0.01 in BKN
09:45 63.9 °F 56.5 °F 29.81 in NW 3.0 mph 9.0 mph 77% 0.00 in BKN
10:00 64.2 °F 56.5 °F 29.81 in Calm   9.0 mph 76% 0.00 in BKN
10:15 64.3 °F 56.6 °F 29.82 in North 2.0 mph 10.0 mph 76% 0.00 in SCT
10:30 64.5 °F 56.0 °F 29.82 in NNW 2.0 mph 12.0 mph 74% 0.00 in SCT
10:45 65.0 °F 56.1 °F 29.82 in WNW 3.0 mph 8.0 mph 73% 0.00 in SCT
11:00 65.0 °F 55.8 °F 29.83 in NNW 5.0 mph 12.0 mph 72% 0.00 in SCT
11:15 65.4 °F 55.4 °F 29.83 in NNW 5.0 mph 9.0 mph 70% 0.00 in BKN
11:30 65.6 °F 55.5 °F 29.83 in North 1.0 mph 10.0 mph 70% 0.00 in BKN
11:45 65.7 °F 55.6 °F 29.83 in NNW 2.0 mph 9.0 mph 70% 0.00 in BKN
12:00 65.8 °F 55.7 °F 29.82 in NW 2.0 mph 8.0 mph 70% 0.00 in BKN
12:15 66.1 °F 55.6 °F 29.82 in NW 2.0 mph 18.0 mph 69% 0.00 in BKN
12:30 66.4 °F 55.5 °F 29.82 in NW 1.0 mph 14.0 mph 68% 0.00 in BKN
12:45 66.9 °F 56.0 °F 29.81 in NW 2.0 mph 12.0 mph 68% 0.00 in BKN
13:00 67.5 °F 57.0 °F 29.82 in North 1.0 mph 9.0 mph 69% 0.00 in BKN
13:15 68.5 °F 57.5 °F 29.82 in NW 2.0 mph 8.0 mph 68% 0.00 in BKN
13:30 69.7 °F 58.2 °F 29.82 in NW 3.0 mph 10.0 mph 67% 0.00 in BKN
13:45 70.1 °F 57.4 °F 29.82 in NNW 2.0 mph 10.0 mph 64% 0.00 in BKN
14:00 70.2 °F 57.4 °F 29.82 in NNW 2.0 mph 13.0 mph 64% 0.00 in BKN
14:15 70.6 °F 58.7 °F 29.82 in NNW 1.0 mph 9.0 mph 66% 0.00 in BKN
14:30 72.1 °F 59.2 °F 29.82 in NNW 3.0 mph 12.0 mph 64% 0.00 in BKN
14:45 73.3 °F 60.0 °F 29.82 in NNW 1.0 mph 13.0 mph 63% 0.00 in BKN
15:00 73.5 °F 57.8 °F 29.82 in North 3.0 mph 14.0 mph 58% 0.00 in BKN
15:15 74.2 °F 57.5 °F 29.82 in NNW 6.0 mph 15.0 mph 56% 0.00 in BKN
15:30 74.2 °F 58.5 °F 29.82 in NW 2.0 mph 15.0 mph 58% 0.00 in BKN
15:45 74.4 °F 58.2 °F 29.82 in NNW 5.0 mph 10.0 mph 57% 0.00 in BKN
16:00 74.5 °F 60.2 °F 29.82 in Calm   8.0 mph 61% 0.00 in BKN
16:15 75.0 °F 58.7 °F 29.83 in NW 3.0 mph 12.0 mph 57% 0.00 in SCT
16:30 75.7 °F 57.9 °F 29.82 in NW 6.0 mph 14.0 mph 54% 0.00 in SCT
16:45 75.8 °F 59.0 °F 29.82 in NNW 5.0 mph 13.0 mph 56% 0.00 in SCT
17:00 76.3 °F 58.9 °F 29.83 in NW 3.0 mph 12.0 mph 55% 0.00 in SCT
17:15 76.2 °F 58.9 °F 29.83 in North 3.0 mph 12.0 mph 55% 0.00 in SCT
17:30 76.0 °F 59.2 °F 29.83 in NNW 3.0 mph 9.0 mph 56% 0.00 in SCT
17:45 75.7 °F 58.9 °F 29.83 in WNW 3.0 mph 8.0 mph 56% 0.00 in SCT
18:00 75.4 °F 59.6 °F 29.83 in Calm   7.0 mph 58% 0.00 in SCT
18:30 74.3 °F 59.5 °F 29.83 in NW 1.0 mph 7.0 mph 60% 0.00 in SCT
18:45 74.7 °F 58.5 °F 29.84 in NNW 3.0 mph 7.0 mph 57% 0.00 in SCT
19:00 73.9 °F 58.2 °F 29.84 in NW 1.0 mph 6.0 mph 58% 0.00 in SCT
19:30 72.6 °F 59.3 °F 29.85 in Calm   5.0 mph 63% 0.00 in SCT
19:45 71.1 °F 59.2 °F 29.85 in Calm   1.0 mph 66% 0.00 in SCT
20:00 70.3 °F 58.0 °F 29.86 in NW 1.0 mph 4.0 mph 65% 0.00 in SCT
20:15 69.6 °F 58.2 °F 29.87 in Calm   4.0 mph 67% 0.00 in FEW
20:30 69.2 °F 57.8 °F 29.87 in NW 1.0 mph 7.0 mph 67% 0.00 in FEW
20:45 68.9 °F 57.1 °F 29.87 in NNW 1.0 mph 6.0 mph 66% 0.00 in FEW
21:00 68.5 °F 56.7 °F 29.87 in WNW 1.0 mph 7.0 mph 66% 0.00 in FEW
21:15 67.8 °F 56.9 °F 29.88 in Calm   5.0 mph 68% 0.00 in CLR
21:30 67.4 °F 56.5 °F 29.88 in NW 2.0 mph 5.0 mph 68% 0.00 in CLR
21:45 67.0 °F 56.1 °F 29.89 in Calm   5.0 mph 68% 0.00 in CLR
22:00 66.4 °F 56.3 °F 29.89 in Calm   4.0 mph 70% 0.00 in CLR
22:15 65.3 °F 56.1 °F 29.89 in Calm   2.0 mph 72% 0.00 in CLR
22:30 64.7 °F 55.1 °F 29.89 in NNW 1.0 mph 5.0 mph 71% 0.00 in CLR
23:00 64.3 °F 53.9 °F 29.90 in Calm   2.0 mph 69% 0.00 in CLR
23:15 64.0 °F 53.6 °F 29.90 in Calm   3.0 mph 69% 0.00 in CLR
23:30 63.7 °F 53.7 °F 29.90 in Calm   3.0 mph 70% 0.00 in CLR
23:45 63.3 °F 53.3 °F 29.91 in Calm   2.0 mph 70% 0.00 in CLR
TarryTown NY Weather
Compliments of Weather Underground - 1.5 mb